Time;durP1;ratioP1;P1;durP2;ratioP2;P2;SDS_P1;SDS_P2;PMS_P1;PMS_P2;Temp;Humidity;BMP_temperature;BMP_pressure;BME280_temperature;BME280_humidity;BME280_pressure;Samples;Min_cycle;Max_cycle;Signal;HPM_P1;HPM_P2
2021/12/03 00:01:12;;;;;;;12.05;5.05;;;11.80;93.30;;;;;;5094793;28;20103;-77
2021/12/03 00:03:39;;;;;;;14.65;5.72;;;11.80;93.20;;;;;;5094794;28;20032;-78
2021/12/03 00:06:05;;;;;;;20.95;6.72;;;11.80;93.50;;;;;;5093473;28;20073;-74
2021/12/03 00:08:31;;;;;;;15.18;6.03;;;11.90;93.30;;;;;;5094488;28;20071;-77
2021/12/03 00:11:01;;;;;;;12.90;5.50;;;11.90;93.30;;;;;;5094830;28;20386;-78
2021/12/03 00:13:29;;;;;;;11.73;4.50;;;11.80;93.90;;;;;;5094449;28;20024;-77
2021/12/03 00:15:57;;;;;;;10.43;4.68;;;11.80;94.00;;;;;;5094404;28;20031;-77
2021/12/03 00:18:23;;;;;;;11.63;4.65;;;11.80;94.30;;;;;;5094491;28;20024;-78
2021/12/03 00:20:50;;;;;;;7.13;3.20;;;11.80;94.30;;;;;;5094564;28;20039;-78
2021/12/03 00:23:17;;;;;;;16.65;6.88;;;11.70;94.30;;;;;;5094422;28;20099;-77
2021/12/03 00:25:43;;;;;;;19.58;9.82;;;11.30;99.90;;;;;;5094098;28;20111;-77
2021/12/03 00:28:09;;;;;;;18.92;10.90;;;10.80;99.90;;;;;;5094222;28;20225;-77
2021/12/03 00:30:36;;;;;;;21.20;12.88;;;10.30;99.90;;;;;;5094170;28;20103;-77
2021/12/03 00:33:05;;;;;;;19.08;11.07;;;10.10;99.90;;;;;;5094180;28;20070;-77
2021/12/03 00:35:31;;;;;;;20.05;11.43;;;9.90;99.90;;;;;;5094280;28;20104;-77
2021/12/03 00:37:58;;;;;;;19.15;11.30;;;9.70;99.90;;;;;;5094201;28;20055;-77
2021/12/03 00:40:28;;;;;;;18.13;10.73;;;9.50;99.90;;;;;;5094247;28;20016;-76
2021/12/03 00:42:55;;;;;;;19.70;10.93;;;9.30;99.90;;;;;;5094459;28;20032;-76
2021/12/03 00:45:21;;;;;;;18.30;9.98;;;9.20;99.90;;;;;;5093947;28;20027;-76
2021/12/03 00:47:47;;;;;;;14.32;9.32;;;9.10;99.90;;;;;;5093972;28;20031;-77
2021/12/03 00:50:17;;;;;;;21.23;12.20;;;9.00;99.90;;;;;;5094039;28;20051;-76
2021/12/03 00:52:43;;;;;;;17.20;9.90;;;8.90;99.90;;;;;;5093939;28;20033;-75
2021/12/03 00:55:10;;;;;;;18.17;10.80;;;8.90;99.90;;;;;;5093611;28;20038;-77
2021/12/03 00:57:36;;;;;;;16.05;10.15;;;8.80;99.90;;;;;;5093534;28;20085;-76
2021/12/03 01:00:05;;;;;;;17.27;10.15;;;8.70;99.90;;;;;;5093564;28;20036;-76
2021/12/03 01:02:31;;;;;;;16.55;9.93;;;8.70;99.90;;;;;;5093705;28;20039;-76
2021/12/03 01:04:57;;;;;;;16.20;9.90;;;8.70;99.90;;;;;;5092731;28;20027;-76
2021/12/03 01:07:23;;;;;;;13.48;8.45;;;8.60;99.90;;;;;;5093675;28;20095;-77
2021/12/03 01:09:49;;;;;;;14.55;8.32;;;8.50;99.90;;;;;;5093679;28;20024;-77
2021/12/03 01:12:15;;;;;;;13.68;8.48;;;8.50;99.90;;;;;;5093402;28;20016;-75
2021/12/03 01:14:41;;;;;;;14.07;7.47;;;8.40;99.90;;;;;;5093175;28;20020;-77
2021/12/03 01:17:08;;;;;;;13.07;8.15;;;8.40;99.90;;;;;;5093394;28;20048;-77
2021/12/03 01:19:34;;;;;;;15.60;7.78;;;8.30;99.90;;;;;;5093370;28;20028;-77
2021/12/03 01:22:00;;;;;;;16.92;8.50;;;8.30;99.90;;;;;;5093430;28;20023;-77
2021/12/03 01:24:26;;;;;;;14.00;8.00;;;8.20;99.90;;;;;;5093244;28;20118;-77
2021/12/03 01:26:54;;;;;;;14.32;8.10;;;8.10;99.90;;;;;;5092985;28;20139;-77
2021/12/03 01:29:22;;;;;;;12.77;7.57;;;8.10;99.90;;;;;;5092979;28;20044;-77
2021/12/03 01:31:48;;;;;;;12.93;7.30;;;8.10;99.90;;;;;;5093057;28;20586;-78
2021/12/03 01:34:15;;;;;;;16.70;8.57;;;8.00;99.90;;;;;;5093152;28;20367;-77
2021/12/03 01:36:41;;;;;;;15.85;8.00;;;7.90;99.90;;;;;;5092954;28;20024;-76
2021/12/03 01:39:07;;;;;;;13.20;7.68;;;7.90;99.90;;;;;;5092953;28;20035;-77
2021/12/03 01:41:34;;;;;;;15.05;8.05;;;7.90;99.90;;;;;;5093227;28;20024;-78
2021/12/03 01:44:02;;;;;;;13.25;7.40;;;7.90;99.90;;;;;;5093038;28;20067;-76
2021/12/03 01:46:30;;;;;;;13.38;8.05;;;7.90;99.90;;;;;;5093060;28;20028;-76
2021/12/03 01:48:57;;;;;;;13.10;6.95;;;7.90;99.90;;;;;;5093060;28;20040;-76
2021/12/03 01:51:24;;;;;;;13.07;7.60;;;7.90;99.90;;;;;;5093148;28;20035;-75
2021/12/03 01:53:50;;;;;;;14.05;7.28;;;7.90;99.90;;;;;;5092865;28;20024;-76
2021/12/03 01:56:17;;;;;;;10.98;6.45;;;7.90;99.90;;;;;;5092892;28;20020;-76
2021/12/03 01:58:45;;;;;;;13.30;7.63;;;7.90;99.90;;;;;;5092959;28;20035;-75
2021/12/03 02:01:14;;;;;;;11.70;6.45;;;7.90;99.90;;;;;;5092562;28;20417;-76
2021/12/03 02:03:44;;;;;;;10.15;6.15;;;7.90;99.90;;;;;;5092651;28;20031;-76
2021/12/03 02:06:11;;;;;;;10.90;6.03;;;7.90;99.90;;;;;;5092853;28;20064;-76
2021/12/03 02:08:38;;;;;;;9.52;5.45;;;7.80;99.90;;;;;;5092797;28;20465;-76
2021/12/03 02:11:06;;;;;;;9.73;5.70;;;7.80;99.90;;;;;;5092986;28;20405;-76
2021/12/03 02:13:33;;;;;;;8.38;5.07;;;7.80;99.90;;;;;;5092757;28;20031;-75
2021/12/03 02:15:59;;;;;;;7.78;4.57;;;7.80;99.90;;;;;;5092877;28;20081;-76
2021/12/03 02:18:25;;;;;;;7.97;5.30;;;7.80;99.90;;;;;;5097064;28;20396;-75
2021/12/03 02:20:58;;;;;;;8.13;4.10;;;7.80;99.90;;;;;;5096937;28;20130;-76
2021/12/03 02:23:25;;;;;;;6.57;4.05;;;7.70;99.90;;;;;;5096738;28;20173;-75
2021/12/03 02:25:51;;;;;;;6.55;3.88;;;7.70;99.90;;;;;;5096413;28;20016;-74
2021/12/03 02:28:21;;;;;;;6.50;3.97;;;7.60;99.90;;;;;;5096455;28;20486;-76
2021/12/03 02:30:47;;;;;;;6.55;3.60;;;7.60;99.90;;;;;;5096600;28;20030;-76
2021/12/03 02:33:15;;;;;;;6.55;3.40;;;7.50;99.90;;;;;;5096546;28;20024;-76
2021/12/03 02:35:43;;;;;;;7.63;3.92;;;7.50;99.90;;;;;;5096529;28;20020;-76
2021/12/03 02:38:11;;;;;;;8.05;3.70;;;7.50;99.90;;;;;;5096556;28;20031;-76
2021/12/03 02:40:37;;;;;;;8.27;3.88;;;7.50;99.90;;;;;;5096526;28;20390;-76
2021/12/03 02:43:03;;;;;;;6.13;4.05;;;7.40;99.90;;;;;;5096266;28;20043;-76
2021/12/03 02:45:29;;;;;;;5.40;3.38;;;7.40;99.90;;;;;;5096401;28;20110;-76
2021/12/03 02:47:58;;;;;;;6.38;3.20;;;7.40;99.90;;;;;;5096219;28;20116;-77
2021/12/03 02:50:24;;;;;;;5.25;3.28;;;7.40;99.90;;;;;;5096168;28;20028;-77
2021/12/03 02:52:51;;;;;;;5.03;3.42;;;7.30;99.90;;;;;;5096123;28;20532;-75
2021/12/03 02:55:17;;;;;;;6.10;2.63;;;7.30;99.90;;;;;;5094709;28;20028;-78
2021/12/03 02:57:43;;;;;;;8.02;3.20;;;7.20;99.90;;;;;;5095818;28;20432;-78
2021/12/03 03:00:12;;;;;;;4.40;1.90;;;7.20;99.90;;;;;;5095855;28;20085;-77
2021/12/03 03:02:40;;;;;;;1.48;1.38;;;7.10;99.90;;;;;;5095922;28;20051;-78
2021/12/03 03:05:08;;;;;;;5.05;2.58;;;7.00;99.90;;;;;;5095894;28;20020;-77
2021/12/03 03:07:34;;;;;;;4.57;2.13;;;7.00;99.90;;;;;;5095643;28;20359;-78
2021/12/03 03:10:00;;;;;;;3.10;1.60;;;7.00;99.90;;;;;;5095552;28;20106;-77
2021/12/03 03:12:26;;;;;;;4.15;2.20;;;6.90;99.90;;;;;;5095265;28;20413;-78
2021/12/03 03:14:58;;;;;;;1.65;1.05;;;6.90;99.90;;;;;;5095479;28;20032;-76
2021/12/03 03:17:27;;;;;;;2.92;1.35;;;6.80;99.90;;;;;;5095574;28;20080;-77
2021/12/03 03:19:55;;;;;;;9.23;3.60;;;6.80;99.90;;;;;;5095648;28;20039;-77
2021/12/03 03:22:22;;;;;;;3.85;1.45;;;6.70;99.90;;;;;;5095709;28;20378;-77
2021/12/03 03:24:49;;;;;;;2.28;1.40;;;6.60;99.90;;;;;;5095321;28;20070;-77
2021/12/03 03:27:16;;;;;;;1.48;1.00;;;6.60;99.90;;;;;;5094993;28;20054;-78
2021/12/03 03:29:44;;;;;;;2.65;1.83;;;6.60;99.90;;;;;;5094146;28;20051;-77
2021/12/03 03:32:11;;;;;;;2.50;1.63;;;6.50;99.90;;;;;;5094496;28;20107;-78
2021/12/03 03:34:37;;;;;;;2.67;1.50;;;6.50;99.90;;;;;;5095095;28;20470;-77
2021/12/03 03:37:03;;;;;;;1.10;1.00;;;6.50;99.90;;;;;;5095022;28;20109;-78
2021/12/03 03:39:29;;;;;;;1.48;1.10;;;6.40;99.90;;;;;;5094957;28;20047;-77
2021/12/03 03:41:55;;;;;;;1.27;0.95;;;6.40;99.90;;;;;;5095122;28;20055;-78
2021/12/03 03:44:21;;;;;;;10.40;4.22;;;6.40;99.90;;;;;;5095174;28;20099;-78
2021/12/03 03:46:50;;;;;;;2.13;1.30;;;6.40;99.90;;;;;;5094925;28;20024;-78
2021/12/03 03:49:16;;;;;;;1.75;1.30;;;6.40;99.90;;;;;;5094792;28;20464;-78
2021/12/03 03:51:42;;;;;;;2.83;1.80;;;6.30;99.90;;;;;;5095273;28;20057;-78
2021/12/03 03:54:08;;;;;;;5.65;2.53;;;6.30;99.90;;;;;;5094773;28;20103;-77
2021/12/03 03:56:34;;;;;;;4.68;2.53;;;6.30;99.90;;;;;;5094754;28;20080;-77
2021/12/03 03:59:00;;;;;;;5.43;2.60;;;6.30;99.90;;;;;;5094659;28;20036;-77
2021/12/03 04:01:26;;;;;;;4.18;2.55;;;6.30;99.90;;;;;;5094249;28;20525;-77
2021/12/03 04:03:52;;;;;;;4.55;2.53;;;6.20;99.90;;;;;;5094674;28;20024;-78
2021/12/03 04:06:19;;;;;;;4.10;2.45;;;6.20;99.90;;;;;;5094594;28;20028;-77
2021/12/03 04:08:47;;;;;;;6.60;2.63;;;6.20;99.90;;;;;;5094607;28;20032;-78
2021/12/03 04:11:14;;;;;;;3.50;2.00;;;6.20;99.90;;;;;;5094508;28;20028;-78
2021/12/03 04:13:40;;;;;;;2.72;1.88;;;6.20;99.90;;;;;;5094531;28;20024;-78
2021/12/03 04:16:07;;;;;;;2.90;2.15;;;6.10;99.90;;;;;;5094541;28;20362;-78
2021/12/03 04:18:33;;;;;;;2.80;1.80;;;6.00;99.90;;;;;;5094527;28;20031;-77
2021/12/03 04:20:59;;;;;;;5.25;2.28;;;6.10;99.90;;;;;;5094649;28;20024;-77
2021/12/03 04:23:25;;;;;;;3.70;1.60;;;6.00;99.90;;;;;;5094245;28;20378;-76
2021/12/03 04:25:51;;;;;;;3.40;1.85;;;5.90;99.90;;;;;;5093881;28;20042;-74
2021/12/03 04:28:19;;;;;;;3.60;1.45;;;5.90;99.90;;;;;;5094174;28;20044;-77
2021/12/03 04:30:46;;;;;;;2.78;1.55;;;5.80;99.90;;;;;;5093077;28;20381;-77
2021/12/03 04:33:13;;;;;;;3.85;1.58;;;5.70;99.90;;;;;;5094207;28;20028;-76
2021/12/03 04:35:39;;;;;;;4.68;1.70;;;5.70;99.90;;;;;;5094209;28;20470;-78
2021/12/03 04:38:05;;;;;;;4.47;1.90;;;5.70;99.90;;;;;;5093962;28;20024;-77
2021/12/03 04:40:33;;;;;;;3.78;1.88;;;5.60;99.90;;;;;;5093988;28;20024;-77
2021/12/03 04:42:59;;;;;;;2.35;1.40;;;5.60;99.90;;;;;;5093931;28;20024;-77
2021/12/03 04:45:29;;;;;;;4.63;1.52;;;5.50;99.90;;;;;;5093906;28;20028;-77
2021/12/03 04:47:57;;;;;;;1.60;1.40;;;5.40;99.90;;;;;;5093419;28;20063;-77
2021/12/03 04:50:25;;;;;;;2.72;1.45;;;5.30;99.90;;;;;;5093822;28;20055;-76
2021/12/03 04:52:52;;;;;;;5.10;1.98;;;5.10;99.90;;;;;;5093908;28;20020;-77
2021/12/03 04:55:18;;;;;;;4.35;1.95;;;5.10;99.90;;;;;;5093244;28;20077;-77
2021/12/03 04:57:44;;;;;;;2.72;1.40;;;5.10;99.90;;;;;;5093619;28;20035;-77
2021/12/03 05:00:17;;;;;;;2.72;1.40;;;5.00;99.90;;;;;;5093651;28;20386;-78
2021/12/03 05:02:44;;;;;;;;;;;4.90;99.90;;;;;;5093257;28;20028;-77
2021/12/03 05:05:10;;;;;;;2.40;1.30;;;4.80;99.90;;;;;;5093209;28;19949;-77
2021/12/03 05:10:07;;;;;;;3.33;1.58;;;4.60;99.90;;;;;;5092916;28;20032;-78
2021/12/03 05:12:33;;;;;;;3.42;1.83;;;4.60;99.90;;;;;;5093213;28;20024;-76
2021/12/03 05:14:59;;;;;;;1.83;1.55;;;4.60;99.90;;;;;;5092883;28;20070;-78
2021/12/03 05:17:25;;;;;;;4.22;2.30;;;4.60;99.90;;;;;;5092715;28;20354;-77
2021/12/03 05:19:51;;;;;;;2.63;1.60;;;4.60;99.90;;;;;;5092998;28;20390;-77
2021/12/03 05:22:18;;;;;;;4.03;1.60;;;4.60;99.90;;;;;;5093365;28;20024;-72
2021/12/03 05:24:47;;;;;;;6.20;3.05;;;4.50;99.90;;;;;;5092675;28;20464;-77
2021/12/03 05:27:19;;;;;;;7.35;3.72;;;4.50;99.90;;;;;;5092578;28;20551;-78
2021/12/03 05:29:48;;;;;;;2.35;1.95;;;4.40;99.90;;;;;;5092777;28;20063;-79
2021/12/03 05:32:16;;;;;;;3.35;1.40;;;4.10;99.90;;;;;;5093046;28;20024;-79
2021/12/03 05:34:42;;;;;;;2.67;2.08;;;3.90;99.90;;;;;;5094045;28;20111;-78
2021/12/03 05:37:08;;;;;;;1.92;1.63;;;3.70;99.90;;;;;;5093250;28;20028;-78
2021/12/03 05:39:35;;;;;;;2.85;1.70;;;3.60;99.90;;;;;;5092479;28;20016;-79
2021/12/03 05:42:02;;;;;;;3.47;2.17;;;3.50;99.90;;;;;;5092797;28;20020;-79
2021/12/03 05:44:30;;;;;;;3.95;1.95;;;3.40;99.90;;;;;;5092933;28;20024;-77
2021/12/03 05:46:59;;;;;;;5.03;1.90;;;3.20;99.90;;;;;;5092469;28;20069;-78
2021/12/03 05:49:26;;;;;;;3.38;2.15;;;3.10;99.90;;;;;;5092860;28;20588;-79
2021/12/03 05:51:53;;;;;;;3.33;2.20;;;3.10;99.90;;;;;;5092764;28;20028;-78
2021/12/03 05:54:20;;;;;;;6.47;3.83;;;2.90;99.90;;;;;;5092847;28;20527;-80
2021/12/03 05:56:46;;;;;;;4.57;2.80;;;3.00;99.90;;;;;;5092997;28;20044;-79
2021/12/03 05:59:12;;;;;;;5.97;3.58;;;2.90;99.90;;;;;;5092588;28;20028;-78
2021/12/03 06:01:38;;;;;;;6.45;3.70;;;2.80;99.90;;;;;;5092963;28;20027;-79
2021/12/03 06:04:04;;;;;;;8.27;4.40;;;2.80;99.90;;;;;;5092802;28;20024;-78
2021/12/03 06:06:30;;;;;;;7.72;4.40;;;2.80;99.90;;;;;;5092378;28;20493;-79
2021/12/03 06:08:58;;;;;;;7.57;4.70;;;2.70;99.90;;;;;;5092586;28;20039;-80
2021/12/03 06:11:25;;;;;;;11.38;5.47;;;2.60;99.90;;;;;;5092897;28;20093;-80
2021/12/03 06:13:51;;;;;;;10.23;5.65;;;2.50;99.90;;;;;;5092806;28;20036;-80
2021/12/03 06:16:17;;;;;;;10.77;5.72;;;2.40;99.90;;;;;;5092485;28;20020;-79
2021/12/03 06:18:43;;;;;;;9.57;5.50;;;2.40;99.90;;;;;;5092708;28;20031;-76
2021/12/03 06:21:12;;;;;;;12.05;6.55;;;2.50;99.90;;;;;;5092758;28;20459;-81
2021/12/03 06:23:39;;;;;;;10.27;6.55;;;2.40;99.90;;;;;;5092354;28;20028;-80
2021/12/03 06:26:06;;;;;;;14.65;8.07;;;2.40;99.90;;;;;;5092075;28;20466;-78
2021/12/03 06:28:33;;;;;;;11.85;6.93;;;2.30;99.90;;;;;;5092420;28;20123;-80
2021/12/03 06:30:59;;;;;;;14.35;8.30;;;2.30;99.90;;;;;;5092592;28;20031;-80
2021/12/03 06:33:25;;;;;;;16.50;9.02;;;2.30;99.90;;;;;;5092947;28;20032;-79
2021/12/03 06:35:52;;;;;;;12.35;7.20;;;2.30;99.90;;;;;;5092508;28;20019;-80
2021/12/03 06:38:18;;;;;;;14.52;7.97;;;2.30;99.90;;;;;;5092401;28;20030;-80
2021/12/03 06:40:46;;;;;;;18.23;9.23;;;2.30;99.90;;;;;;5092512;28;20056;-80
2021/12/03 06:43:12;;;;;;;13.18;6.85;;;2.40;99.90;;;;;;5092298;28;20015;-81
2021/12/03 06:45:38;;;;;;;11.38;6.32;;;2.40;99.90;;;;;;5092573;28;20028;-80
2021/12/03 06:48:05;;;;;;;10.32;6.32;;;2.40;99.90;;;;;;5092097;28;20043;-79
2021/12/03 06:50:32;;;;;;;7.95;5.50;;;2.50;99.90;;;;;;5092446;28;20356;-80
2021/12/03 06:53:10;;;;;;;9.57;5.78;;;2.50;99.90;;;;;;5092230;28;20016;-80
2021/12/03 06:55:44;;;;;;;9.98;5.82;;;2.60;99.90;;;;;;5092060;28;20356;-80
2021/12/03 06:58:11;;;;;;;10.38;6.55;;;2.60;99.90;;;;;;5092055;28;20157;-79
2021/12/03 07:00:37;;;;;;;8.93;5.90;;;2.70;99.90;;;;;;5092248;28;20453;-79
2021/12/03 07:03:03;;;;;;;12.45;7.32;;;2.80;99.90;;;;;;5092224;28;20028;-80
2021/12/03 07:05:29;;;;;;;10.50;5.82;;;2.80;99.90;;;;;;5095850;28;20032;-76
2021/12/03 07:07:55;;;;;;;13.55;7.32;;;2.80;99.90;;;;;;5095803;28;20032;-80
2021/12/03 07:10:21;;;;;;;13.52;7.38;;;2.90;99.90;;;;;;5095831;28;20020;-79
2021/12/03 07:12:48;;;;;;;14.10;7.10;;;3.00;99.90;;;;;;5095781;28;20051;-80
2021/12/03 07:15:14;;;;;;;13.10;6.60;;;3.00;99.90;;;;;;5095695;28;20036;-80
2021/12/03 07:17:40;;;;;;;13.23;7.13;;;3.00;99.90;;;;;;5095564;28;20513;-80
2021/12/03 07:20:08;;;;;;;13.13;7.32;;;3.10;99.90;;;;;;5095981;28;20516;-80
2021/12/03 07:22:34;;;;;;;12.95;7.80;;;3.10;99.90;;;;;;5095348;28;20024;-80
2021/12/03 07:25:00;;;;;;;15.70;7.80;;;3.10;99.90;;;;;;5095667;28;20039;-80
2021/12/03 07:27:26;;;;;;;14.52;7.65;;;3.20;99.90;;;;;;5095397;28;20048;-80
2021/12/03 07:29:52;;;;;;;13.27;7.00;;;3.20;99.90;;;;;;5095782;28;20057;-80
2021/12/03 07:32:23;;;;;;;16.58;8.50;;;3.30;99.90;;;;;;5093857;28;20024;-79
2021/12/03 07:34:50;;;;;;;11.32;6.60;;;3.30;99.90;;;;;;5095112;28;20485;-80
2021/12/03 07:37:16;;;;;;;13.30;7.30;;;3.40;99.90;;;;;;5095467;28;20024;-80
2021/12/03 07:39:44;;;;;;;13.95;7.88;;;3.40;99.90;;;;;;5095185;28;20034;-79
2021/12/03 07:42:10;;;;;;;16.35;9.07;;;3.40;99.90;;;;;;5095287;28;20020;-80
2021/12/03 07:44:36;;;;;;;13.18;7.80;;;3.40;99.90;;;;;;5095504;28;20145;-80
2021/12/03 07:47:03;;;;;;;12.98;7.18;;;3.50;99.90;;;;;;5094932;28;20050;-80
2021/12/03 07:49:29;;;;;;;14.35;8.85;;;3.50;99.90;;;;;;5094775;28;20038;-80
2021/12/03 07:51:55;;;;;;;15.77;7.72;;;3.50;99.90;;;;;;5094838;28;20378;-79
2021/12/03 07:54:21;;;;;;;17.25;10.15;;;3.50;99.90;;;;;;5094948;28;20026;-80
2021/12/03 07:56:47;;;;;;;16.02;8.43;;;3.60;99.90;;;;;;5094778;28;20482;-80
2021/12/03 07:59:13;;;;;;;17.05;9.70;;;3.50;99.90;;;;;;5094779;28;20078;-80
2021/12/03 08:01:43;;;;;;;14.48;7.85;;;3.60;99.90;;;;;;5094833;28;20024;-81
2021/12/03 08:04:11;;;;;;;15.57;7.88;;;3.60;99.90;;;;;;5094501;28;20028;-80
2021/12/03 08:06:39;;;;;;;13.45;7.80;;;3.60;99.90;;;;;;5094451;28;20028;-80
2021/12/03 08:09:07;;;;;;;14.50;7.45;;;3.70;99.90;;;;;;5094523;28;20408;-80
2021/12/03 08:11:33;;;;;;;10.82;6.55;;;3.60;99.90;;;;;;5094190;28;20073;-80
2021/12/03 08:13:59;;;;;;;15.45;8.88;;;3.80;99.90;;;;;;5093733;28;20020;-79
2021/12/03 08:16:25;;;;;;;11.93;6.78;;;3.80;99.90;;;;;;5094400;28;20103;-77
2021/12/03 08:18:51;;;;;;;18.45;10.32;;;3.80;99.90;;;;;;5093818;28;20439;-80
2021/12/03 08:21:17;;;;;;;17.88;9.30;;;3.90;99.90;;;;;;5094312;28;20362;-80
2021/12/03 08:23:43;;;;;;;15.68;7.75;;;4.00;99.90;;;;;;5094014;28;20032;-79
2021/12/03 08:26:09;;;;;;;12.02;7.00;;;4.00;99.90;;;;;;5094033;28;20066;-80
2021/12/03 08:28:34;;;;;;;12.15;6.97;;;4.00;99.90;;;;;;5094010;28;20475;-79
2021/12/03 08:31:01;;;;;;;14.68;7.80;;;4.00;99.90;;;;;;5093931;28;20026;-80
2021/12/03 08:33:27;;;;;;;13.60;8.10;;;4.00;99.90;;;;;;5094125;28;20035;-76
2021/12/03 08:35:52;;;;;;;15.25;8.27;;;4.00;99.90;;;;;;5094079;28;20385;-80
2021/12/03 08:38:18;;;;;;;14.68;7.88;;;4.00;99.90;;;;;;5094072;28;20035;-80
2021/12/03 08:40:44;;;;;;;18.20;9.00;;;4.20;99.90;;;;;;5093794;28;20458;-80
2021/12/03 08:43:10;;;;;;;14.88;7.60;;;4.20;99.90;;;;;;5094061;28;20119;-80
2021/12/03 08:45:38;;;;;;;14.43;7.70;;;4.30;99.90;;;;;;5093996;28;20437;-80
2021/12/03 08:48:05;;;;;;;14.77;8.05;;;4.30;99.90;;;;;;5093832;28;20032;-80
2021/12/03 08:50:35;;;;;;;16.20;8.48;;;4.30;99.90;;;;;;5093799;28;20016;-80
2021/12/03 08:54:48;;;;;;;12.07;6.90;;;4.40;99.90;;;;;;5092665;28;20363;-80
2021/12/03 08:55:55;;;;;;;14.27;8.07;;;4.40;99.90;;;;;;5091649;28;20036;-79
2021/12/03 08:58:21;;;;;;;13.00;7.68;;;4.50;99.90;;;;;;5093801;28;20039;-79
2021/12/03 09:00:47;;;;;;;16.20;8.07;;;4.40;99.90;;;;;;5093808;28;20103;-80
2021/12/03 09:03:12;;;;;;;13.73;7.85;;;4.50;99.90;;;;;;5093490;28;20028;-80
2021/12/03 09:05:39;;;;;;;14.75;8.57;;;4.60;99.90;;;;;;5093398;28;20027;-79
2021/12/03 09:08:05;;;;;;;14.98;7.38;;;4.60;99.90;;;;;;5093501;28;20093;-79
2021/12/03 09:10:31;;;;;;;16.77;9.10;;;4.70;99.90;;;;;;5093528;28;20482;-80
2021/12/03 09:12:57;;;;;;;12.65;7.07;;;4.70;99.90;;;;;;5093639;28;20027;-80
2021/12/03 09:15:33;;;;;;;15.57;7.95;;;4.70;99.90;;;;;;5093623;28;20036;-77
2021/12/03 09:18:17;;;;;;;15.43;8.68;;;4.80;99.90;;;;;;5093353;28;20028;-80
2021/12/03 09:21:03;;;;;;;18.75;9.40;;;4.90;99.90;;;;;;5093581;28;20032;-78
2021/12/03 09:26:18;;;;;;;10.73;6.50;;;5.00;99.90;;;;;;5049235;28;20479;-80
2021/12/03 09:28:48;;;;;;;14.23;7.38;;;5.00;99.90;;;;;;5050788;28;20156;-79
2021/12/03 09:31:16;;;;;;;15.23;8.38;;;5.00;99.90;;;;;;5050338;28;20526;-77
2021/12/03 09:33:47;;;;;;;15.23;8.73;;;5.10;99.90;;;;;;5050471;28;20486;-74
2021/12/03 09:36:13;;;;;;;14.70;8.13;;;5.10;99.90;;;;;;5050825;28;20029;-78
2021/12/03 09:38:40;;;;;;;16.88;9.63;;;5.10;99.90;;;;;;5050558;28;20419;-79
2021/12/03 09:41:12;;;;;;;18.08;8.68;;;5.00;99.90;;;;;;5050045;28;20060;-77
2021/12/03 09:43:44;;;;;;;15.67;8.90;;;4.90;99.90;;;;;;5050447;28;20086;-77
2021/12/03 09:48:57;;;;;;;14.80;8.20;;;5.00;99.90;;;;;;5050258;28;20326;-79
2021/12/03 09:51:27;;;;;;;16.60;8.88;;;5.00;99.90;;;;;;5050126;28;20041;-78
2021/12/03 09:56:38;;;;;;;14.82;9.10;;;5.10;99.90;;;;;;5050345;28;20488;-80
2021/12/03 10:01:44;;;;;;;14.45;8.70;;;5.10;99.90;;;;;;5049956;28;20108;-79
2021/12/03 10:15:06;;;;;;;18.83;10.77;;;5.30;99.90;;;;;;5094530;28;20523;-80
2021/12/03 10:17:48;;;;;;;19.05;11.77;;;5.40;99.90;;;;;;5096433;28;20036;-79
2021/12/03 10:20:32;;;;;;;19.85;12.15;;;5.40;99.90;;;;;;5096572;28;20111;-79
2021/12/03 10:45:46;;;;;;;22.02;11.82;;;5.60;99.90;;;;;;4975309;28;20067;-80
2021/12/03 10:48:32;;;;;;;21.98;12.85;;;5.50;99.90;;;;;;4974977;28;20088;-80
2021/12/03 10:54:19;;;;;;;22.35;12.82;;;5.60;99.90;;;;;;4974931;28;20039;-80
2021/12/03 11:40:24;;;;;;;21.90;14.20;;;5.60;99.90;;;;;;4954805;29;20486;-77
2021/12/03 12:33:04;;;;;;;28.02;16.55;;;5.70;99.90;;;;;;5094022;28;20025;-79
2021/12/03 13:24:30;;;;;;;20.35;11.32;;;5.80;99.90;;;;;;5093298;28;20027;-78
2021/12/03 14:43:36;;;;;;;56.38;31.25;;;5.60;99.90;;;;;;5014102;28;20109;-75
2021/12/03 14:54:46;;;;;;;47.17;24.98;;;5.50;99.90;;;;;;5013305;28;20038;-79
2021/12/03 15:03:27;;;;;;;48.80;25.35;;;5.50;99.90;;;;;;4955195;29;20475;-77
2021/12/03 15:08:52;;;;;;;41.85;26.67;;;5.60;99.90;;;;;;4954407;29;20070;-76
2021/12/03 15:25:26;;;;;;;39.35;24.23;;;5.60;99.90;;;;;;5032008;28;20038;-75
2021/12/03 15:36:05;;;;;;;51.13;28.67;;;5.70;99.90;;;;;;4957661;28;20405;-76
2021/12/03 16:06:18;;;;;;;54.33;30.50;;;5.70;99.90;;;;;;4973912;28;20532;-78
2021/12/03 16:08:31;;;;;;;35.83;21.63;;;5.80;99.90;;;;;;4972298;28;20051;-76
2021/12/03 16:11:09;;;;;;;36.70;21.67;;;5.70;99.90;;;;;;5012288;28;20034;-82
2021/12/03 16:18:50;;;;;;;43.60;23.30;;;5.60;99.90;;;;;;5032377;28;20084;-74
2021/12/03 16:53:36;;;;;;;21.38;10.40;;;5.60;99.90;;;;;;5032786;28;20131;-78
2021/12/03 16:56:16;;;;;;;18.63;9.88;;;5.70;99.90;;;;;;5033453;28;20411;-79
2021/12/03 16:58:43;;;;;;;20.25;9.70;;;5.60;99.90;;;;;;5033177;28;20034;-76
2021/12/03 17:49:37;;;;;;;39.47;22.13;;;5.40;99.90;;;;;;5012966;28;20038;-77
2021/12/03 17:52:29;;;;;;;49.60;24.70;;;5.40;99.90;;;;;;5012820;28;20132;-76
2021/12/03 17:55:15;;;;;;;51.15;29.33;;;5.30;99.90;;;;;;5012657;28;20045;-76
2021/12/03 18:03:26;;;;;;;43.92;24.40;;;5.30;99.90;;;;;;5032472;28;20034;-76
2021/12/03 18:43:59;;;;;;;41.83;24.08;;;5.30;99.90;;;;;;4951737;29;20118;-77
2021/12/03 18:52:04;;;;;;;34.90;20.00;;;5.10;99.90;;;;;;4990405;28;20038;-79
2021/12/03 18:57:02;;;;;;;29.75;18.42;;;5.10;99.90;;;;;;5011590;28;20038;-78
2021/12/03 18:59:28;;;;;;;32.00;18.70;;;5.00;99.90;;;;;;5014651;28;20495;-78
2021/12/03 19:01:54;;;;;;;28.13;18.13;;;5.00;99.90;;;;;;5015721;28;20113;-76
2021/12/03 19:07:12;;;;;;;25.17;15.27;;;5.00;99.90;;;;;;5015654;28;20069;-75
2021/12/03 19:09:45;;;;;;;25.23;13.80;;;5.00;99.90;;;;;;5021856;28;20041;-77
2021/12/03 19:12:16;;;;;;;25.00;13.48;;;4.90;99.90;;;;;;5035293;28;20482;-78
2021/12/03 19:14:49;;;;;;;34.42;15.65;;;4.90;99.90;;;;;;5035167;28;20095;-78
2021/12/03 19:17:16;;;;;;;29.45;15.88;;;4.90;99.90;;;;;;5035371;28;20029;-79
2021/12/03 19:19:46;;;;;;;29.92;16.30;;;4.90;99.90;;;;;;5035348;28;20036;-79
2021/12/03 19:22:14;;;;;;;29.48;16.05;;;4.90;99.90;;;;;;5035356;28;20100;-78
2021/12/03 19:24:40;;;;;;;34.78;17.50;;;4.80;99.90;;;;;;5035359;28;20422;-79
2021/12/03 19:27:08;;;;;;;35.97;18.52;;;4.70;99.90;;;;;;5034600;28;20108;-78
2021/12/03 19:29:34;;;;;;;30.50;17.48;;;4.80;99.90;;;;;;5035000;28;20099;-72
2021/12/03 19:32:00;;;;;;;29.88;19.38;;;4.80;99.90;;;;;;5035064;28;20068;-71
2021/12/03 19:34:26;;;;;;;31.65;16.65;;;4.70;99.90;;;;;;5034561;28;20118;-76
2021/12/03 19:36:53;;;;;;;27.42;14.32;;;4.70;99.90;;;;;;5034577;28;20032;-79
2021/12/03 19:39:20;;;;;;;27.48;13.82;;;4.70;99.90;;;;;;5034535;28;20022;-74
2021/12/03 19:41:56;;;;;;;28.67;16.17;;;4.60;99.90;;;;;;5034964;28;20444;-78
2021/12/03 19:44:32;;;;;;;28.25;14.45;;;4.60;99.90;;;;;;5034043;28;20045;-77
2021/12/03 19:46:58;;;;;;;26.83;13.88;;;4.60;99.90;;;;;;5033852;28;20026;-79
2021/12/03 19:51:57;;;;;;;28.00;14.70;;;4.60;99.90;;;;;;5034503;28;20065;-79
2021/12/03 19:54:23;;;;;;;27.33;14.05;;;4.60;99.90;;;;;;5034376;28;20391;-78
2021/12/03 19:56:50;;;;;;;27.55;14.60;;;4.60;99.90;;;;;;5049562;28;20084;-78
2021/12/03 19:59:18;;;;;;;27.50;13.77;;;4.60;99.90;;;;;;5028403;28;20442;-68
2021/12/03 20:01:45;;;;;;;25.17;13.55;;;4.60;99.90;;;;;;5045159;28;20057;-78
2021/12/03 20:04:13;;;;;;;27.05;13.65;;;4.50;99.90;;;;;;5034388;28;20386;-67
2021/12/03 20:06:43;;;;;;;23.88;13.00;;;4.50;99.90;;;;;;5034262;28;20014;-77
2021/12/03 20:09:25;;;;;;;23.73;13.18;;;4.50;99.90;;;;;;5034032;28;20491;-77
2021/12/03 20:11:55;;;;;;;27.05;14.75;;;4.50;99.90;;;;;;5033106;28;20029;-78
2021/12/03 20:14:22;;;;;;;25.75;15.73;;;4.40;99.90;;;;;;5032546;28;20038;-76
2021/12/03 20:16:56;;;;;;;31.20;16.13;;;4.30;99.90;;;;;;5033803;28;20399;-77
2021/12/03 20:25:15;;;;;;;29.73;15.70;;;4.20;99.90;;;;;;5051612;28;20119;-77
2021/12/03 20:27:46;;;;;;;;;;;4.10;99.90;;;;;;5051759;28;20025;-77
2021/12/03 20:30:22;;;;;;;27.75;13.82;;;4.10;99.90;;;;;;5051418;28;19956;-76
2021/12/03 20:36:05;;;;;;;26.98;14.52;;;3.90;99.90;;;;;;5011604;28;20044;-68
2021/12/03 20:38:28;;;;;;;27.77;15.43;;;3.90;99.90;;;;;;5010390;28;20120;-76
2021/12/03 20:40:58;;;;;;;29.55;17.73;;;3.80;99.90;;;;;;5011003;28;20065;-77
2021/12/03 20:54:06;;;;;;;34.08;18.42;;;3.70;99.90;;;;;;5011026;28;20030;-76
2021/12/03 21:10:08;;;;;;;27.42;17.65;;;3.80;99.90;;;;;;4949455;28;20071;-77
2021/12/03 21:12:44;;;;;;;36.17;20.02;;;3.80;99.90;;;;;;4987106;28;20068;-77
2021/12/03 21:20:29;;;;;;;38.00;21.60;;;3.90;99.90;;;;;;5030862;28;20480;-66
2021/12/03 21:22:59;;;;;;;42.95;26.10;;;4.00;99.90;;;;;;5032298;28;20025;-76
2021/12/03 21:25:30;;;;;;;54.42;31.88;;;4.10;99.90;;;;;;4984085;28;20061;-67
2021/12/03 21:43:17;;;;;;;55.08;27.48;;;4.20;99.90;;;;;;4974011;28;20042;-75
2021/12/03 21:45:44;;;;;;;43.58;23.05;;;4.20;99.90;;;;;;4974450;28;20035;-76